Time;durP1;ratioP1;P1;durP2;ratioP2;P2;SDS_P1;SDS_P2;PMS_P1;PMS_P2;Temp;Humidity;BMP_temperature;BMP_pressure;BME280_temperature;BME280_humidity;BME280_pressure;Samples;Min_cycle;Max_cycle;Signal;HPM_P1;HPM_P2
2021/05/02 00:00:59;;;;;;;26.45;16.10;;;;;;;6.77;88.43;101015.69;6247673;28;20045;-79
2021/05/02 00:04:02;;;;;;;22.73;14.65;;;;;;;6.73;88.77;101016.69;6247526;28;20100;-79
2021/05/02 00:07:03;;;;;;;25.90;15.70;;;;;;;6.58;89.46;101000.59;6247095;28;20060;-79
2021/05/02 00:10:05;;;;;;;26.98;15.68;;;;;;;6.54;89.38;101009.44;6247440;28;20045;-78
2021/05/02 00:13:07;;;;;;;32.05;17.33;;;;;;;6.53;89.94;101012.09;6247105;28;20053;-77
2021/05/02 00:16:08;;;;;;;29.08;15.50;;;;;;;6.56;89.13;101010.25;6247495;28;20497;-79
2021/05/02 00:19:10;;;;;;;22.90;14.82;;;;;;;6.60;88.58;101021.44;6247355;28;20054;-79
2021/05/02 00:22:11;;;;;;;27.00;15.43;;;;;;;6.59;88.35;101009.31;6247128;28;20059;-79
2021/05/02 00:25:14;;;;;;;24.67;14.05;;;;;;;6.58;88.27;101018.00;6246739;28;20061;-77
2021/05/02 00:28:16;;;;;;;27.52;13.73;;;;;;;6.56;87.62;101014.63;6246948;28;20057;-79
2021/05/02 00:31:18;;;;;;;23.08;13.50;;;;;;;6.56;87.02;101022.44;6247543;28;20045;-78
2021/05/02 00:34:19;;;;;;;20.80;13.05;;;;;;;6.54;86.49;101019.91;6248490;28;20045;-79
2021/05/02 00:37:20;;;;;;;22.02;14.27;;;;;;;6.50;87.34;101028.72;6247377;28;20053;-79
2021/05/02 00:40:34;;;;;;;22.25;13.98;;;;;;;6.32;87.55;101024.94;6247422;28;20050;-77
2021/05/02 00:43:39;;;;;;;21.52;14.00;;;;;;;6.23;89.32;101026.97;6248763;28;20053;-77
2021/05/02 00:46:49;;;;;;;25.08;15.15;;;;;;;6.14;89.59;101024.66;6287722;28;20041;-77
2021/05/02 00:49:54;;;;;;;;;;;;;;;6.11;90.74;101022.97;6294705;28;20455;-77
2021/05/02 00:53:29;;;;;;;30.73;16.67;;;;;;;6.06;91.14;101024.88;6290282;28;19971;-77
2021/05/02 00:56:34;;;;;;;26.95;15.27;;;;;;;6.02;91.35;101026.72;6252705;28;20049;-77
2021/05/02 00:59:46;;;;;;;27.60;15.75;;;;;;;5.99;91.06;101024.19;6274429;28;20040;-77
2021/05/02 01:02:47;;;;;;;29.92;16.58;;;;;;;5.95;91.98;101032.16;6296121;28;20048;-77
2021/05/02 01:05:48;;;;;;;30.73;17.00;;;;;;;5.97;92.59;101027.75;6301515;28;20051;-77
2021/05/02 01:08:51;;;;;;;24.40;16.05;;;;;;;5.98;90.50;101025.09;6302455;28;20484;-77
2021/05/02 01:11:52;;;;;;;26.00;15.75;;;;;;;5.99;89.58;101020.72;6302002;28;20055;-77
2021/05/02 01:14:55;;;;;;;26.27;15.63;;;;;;;6.06;89.25;101020.50;6301790;28;20045;-77
2021/05/02 01:18:00;;;;;;;24.60;15.45;;;;;;;6.10;89.02;101023.88;6302047;28;20044;-78
2021/05/02 01:21:02;;;;;;;28.08;16.60;;;;;;;6.08;88.67;101025.66;6301696;28;20044;-77
2021/05/02 01:24:08;;;;;;;22.45;14.27;;;;;;;6.16;88.27;101025.44;6289377;28;20045;-78
2021/05/02 01:27:09;;;;;;;26.40;16.33;;;;;;;5.94;89.93;101020.88;6301891;28;20569;-78
2021/05/02 01:30:12;;;;;;;29.50;16.80;;;;;;;5.87;90.98;101024.53;6301969;28;20123;-77
2021/05/02 01:33:13;;;;;;;27.17;16.20;;;;;;;5.87;90.48;101021.94;6301396;28;20098;-77
2021/05/02 01:36:14;;;;;;;28.15;16.75;;;;;;;5.70;90.26;101024.19;6302490;28;20102;-77
2021/05/02 01:39:16;;;;;;;24.65;15.40;;;;;;;5.76;90.78;101031.81;6301777;28;20710;-77
2021/05/02 01:42:17;;;;;;;28.80;17.05;;;;;;;5.56;91.92;101022.81;6301539;28;20501;-77
2021/05/02 01:45:18;;;;;;;32.08;17.77;;;;;;;5.63;91.92;101030.44;6301291;28;20048;-77
2021/05/02 01:48:23;;;;;;;28.17;18.38;;;;;;;5.63;93.22;101026.09;6301769;28;20416;-77
2021/05/02 01:51:24;;;;;;;27.92;18.00;;;;;;;5.73;93.70;101026.69;6302319;28;20051;-77
2021/05/02 01:54:25;;;;;;;27.58;17.98;;;;;;;5.71;93.37;101020.66;6302127;28;20044;-77
2021/05/02 01:57:30;;;;;;;32.33;18.35;;;;;;;5.70;94.15;101021.56;6301778;28;20067;-77
2021/05/02 02:00:42;;;;;;;33.00;18.63;;;;;;;5.69;94.06;101025.94;6302622;28;20048;-77
2021/05/02 02:03:44;;;;;;;28.40;17.45;;;;;;;5.73;93.72;101030.16;6300941;28;20052;-77
2021/05/02 02:06:48;;;;;;;35.97;18.30;;;;;;;5.77;93.55;101025.72;6301101;28;20048;-77
2021/05/02 02:09:50;;;;;;;29.15;18.45;;;;;;;5.78;93.53;101030.88;6300189;28;20101;-77
2021/05/02 02:12:52;;;;;;;30.33;18.15;;;;;;;5.74;93.35;101031.88;6300476;28;20563;-77
2021/05/02 02:15:53;;;;;;;27.23;17.33;;;;;;;5.69;92.28;101020.72;6300407;28;20047;-77
2021/05/02 02:18:54;;;;;;;29.02;18.63;;;;;;;5.54;93.11;101035.03;6300318;28;20056;-77
2021/05/02 02:21:58;;;;;;;31.38;18.08;;;;;;;5.55;92.22;101036.75;6300083;28;20048;-77
2021/05/02 02:25:02;;;;;;;30.63;18.90;;;;;;;5.32;93.82;101040.00;6300067;28;20467;-77
2021/05/02 02:28:04;;;;;;;28.55;18.05;;;;;;;5.35;94.96;101037.28;6299925;28;20409;-77
2021/05/02 02:31:07;;;;;;;32.33;20.08;;;;;;;5.38;94.33;101048.53;6299748;28;20072;-77
2021/05/02 02:34:08;;;;;;;32.88;20.67;;;;;;;5.43;94.36;101049.25;6298718;28;20386;-77
2021/05/02 02:37:14;;;;;;;30.08;18.40;;;;;;;5.50;94.50;101049.06;6299236;28;20063;-77
2021/05/02 02:40:17;;;;;;;34.75;20.80;;;;;;;5.56;95.35;101050.63;6299931;28;20056;-77
2021/05/02 02:43:23;;;;;;;30.73;19.75;;;;;;;5.62;94.62;101049.59;6298997;28;20041;-77
2021/05/02 02:46:25;;;;;;;31.90;20.75;;;;;;;5.57;94.57;101053.19;6299311;28;20044;-78
2021/05/02 02:49:28;;;;;;;32.92;20.13;;;;;;;5.62;94.79;101052.22;6299415;28;20063;-78
2021/05/02 02:52:29;;;;;;;33.78;21.13;;;;;;;5.61;94.90;101053.97;6299178;28;20045;-77
2021/05/02 02:55:32;;;;;;;34.95;21.08;;;;;;;5.69;94.84;101049.41;6309578;23;20386;-76
2021/05/02 02:58:35;;;;;;;36.70;21.35;;;;;;;5.66;95.54;101046.88;6254095;28;20075;-76
2021/05/02 03:01:40;;;;;;;31.55;20.98;;;;;;;5.68;96.09;101050.31;6229506;28;20502;-76
2021/05/02 03:04:46;;;;;;;32.47;20.98;;;;;;;5.71;95.77;101051.94;6236554;28;20097;-76
2021/05/02 03:07:48;;;;;;;33.35;21.42;;;;;;;5.72;95.28;101051.94;6248091;28;20056;-76
2021/05/02 03:10:51;;;;;;;32.50;20.27;;;;;;;5.73;94.83;101053.63;6247984;28;20140;-76
2021/05/02 03:13:53;;;;;;;37.10;21.05;;;;;;;5.74;95.20;101054.47;6247229;28;20045;-76
2021/05/02 03:16:57;;;;;;;32.22;20.85;;;;;;;5.77;95.41;101049.19;6248161;28;20398;-76
2021/05/02 03:20:03;;;;;;;33.75;20.50;;;;;;;5.83;94.65;101044.63;6241223;28;20053;-76
2021/05/02 03:23:08;;;;;;;29.23;18.42;;;;;;;6.07;93.89;101047.44;6247757;28;20414;-76
2021/05/02 03:26:12;;;;;;;30.13;19.08;;;;;;;5.91;93.89;101044.44;6248165;28;20045;-77
2021/05/02 03:29:14;;;;;;;32.20;19.65;;;;;;;5.89;93.86;101043.59;6247837;28;20053;-77
2021/05/02 03:32:20;;;;;;;31.23;19.23;;;;;;;5.96;93.65;101047.78;6247436;28;20411;-77
2021/05/02 03:35:24;;;;;;;30.55;19.33;;;;;;;5.79;94.74;101052.59;6247286;28;20050;-77
2021/05/02 03:38:30;;;;;;;28.80;19.75;;;;;;;5.85;93.53;101047.19;6247829;28;20084;-77
2021/05/02 03:41:34;;;;;;;27.55;18.27;;;;;;;5.82;94.53;101058.59;6247417;28;20501;-76
2021/05/02 03:44:35;;;;;;;33.20;19.75;;;;;;;5.69;94.87;101058.97;6247439;28;20045;-77
2021/05/02 03:47:36;;;;;;;31.85;20.00;;;;;;;5.68;95.32;101060.72;6247211;28;20460;-77
2021/05/02 03:50:37;;;;;;;29.70;19.58;;;;;;;5.72;94.96;101064.09;6247439;28;20074;-76
2021/05/02 03:53:38;;;;;;;32.78;20.30;;;;;;;5.73;94.71;101060.59;6247051;28;20060;-77
2021/05/02 03:56:41;;;;;;;29.23;18.65;;;;;;;5.77;94.07;101063.06;6247064;28;20072;-77
2021/05/02 03:59:42;;;;;;;35.03;20.65;;;;;;;5.65;94.81;101058.19;6247258;28;20053;-77
2021/05/02 04:02:43;;;;;;;35.85;20.85;;;;;;;5.63;94.99;101064.34;6247527;28;20050;-76
2021/05/02 04:05:44;;;;;;;33.22;21.02;;;;;;;5.54;94.75;101062.84;6246862;28;20045;-76
2021/05/02 04:08:45;;;;;;;33.03;20.40;;;;;;;5.54;93.75;101068.06;6247127;28;20056;-77
2021/05/02 04:11:47;;;;;;;29.45;20.08;;;;;;;5.43;94.26;101062.28;6246911;28;20700;-77
2021/05/02 04:14:48;;;;;;;31.85;20.48;;;;;;;5.25;94.21;101081.88;6246930;28;20049;-77
2021/05/02 04:17:49;;;;;;;32.67;21.45;;;;;;;5.27;95.25;101074.88;6246981;28;20054;-77
2021/05/02 04:20:50;;;;;;;31.00;18.88;;;;;;;5.21;95.68;101080.25;6247199;28;20577;-77
2021/05/02 04:23:51;;;;;;;33.42;21.45;;;;;;;5.19;95.63;101085.50;6247564;28;20569;-77
2021/05/02 04:26:54;;;;;;;30.83;20.10;;;;;;;5.19;95.57;101093.31;6251849;28;20046;-76
2021/05/02 04:29:57;;;;;;;30.92;20.33;;;;;;;5.27;95.09;101096.59;6251295;28;20052;-77
2021/05/02 04:32:58;;;;;;;31.30;19.90;;;;;;;5.08;96.37;101101.38;6251445;28;20064;-76
2021/05/02 04:35:59;;;;;;;30.83;20.52;;;;;;;5.11;96.81;101099.59;6251542;28;20498;-76
2021/05/02 04:39:01;;;;;;;36.50;22.08;;;;;;;5.16;96.95;101102.94;6251956;28;20524;-77
2021/05/02 04:42:03;;;;;;;32.20;19.42;;;;;;;5.19;95.35;101114.16;6251959;28;20053;-77
2021/05/02 04:45:05;;;;;;;28.83;19.30;;;;;;;5.12;95.85;101099.56;6251270;28;20494;-76
2021/05/02 04:48:06;;;;;;;30.60;19.65;;;;;;;5.19;95.62;101113.31;6251619;28;20050;-76
2021/05/02 04:51:08;;;;;;;30.52;19.38;;;;;;;5.16;96.32;101121.19;6251386;28;20049;-77
2021/05/02 04:54:09;;;;;;;36.38;21.40;;;;;;;4.97;97.55;101118.19;6251079;28;20059;-77
2021/05/02 04:57:11;;;;;;;37.00;22.52;;;;;;;5.05;97.42;101127.53;6250925;28;20136;-77
2021/05/02 05:00:12;;;;;;;34.35;21.30;;;;;;;5.10;97.31;101127.41;6250911;28;20485;-76
2021/05/02 05:03:13;;;;;;;34.38;21.60;;;;;;;5.08;97.58;101119.63;6250838;28;20053;-76
2021/05/02 05:06:14;;;;;;;38.72;23.35;;;;;;;5.08;97.78;101121.38;6250637;28;20088;-77
2021/05/02 05:09:15;;;;;;;35.15;20.90;;;;;;;5.13;97.26;101123.84;6251058;28;20057;-77
2021/05/02 05:12:17;;;;;;;34.70;21.63;;;;;;;5.14;97.18;101126.44;6250821;28;20128;-77
2021/05/02 05:15:18;;;;;;;37.05;21.95;;;;;;;5.14;97.29;101125.59;6250845;28;20045;-77
2021/05/02 05:18:19;;;;;;;35.88;20.52;;;;;;;5.18;96.47;101128.09;6250626;28;20460;-76
2021/05/02 05:21:19;;;;;;;35.22;20.02;;;;;;;5.23;97.21;101127.97;6250597;28;20081;-76
2021/05/02 05:24:20;;;;;;;35.47;21.00;;;;;;;5.14;97.51;101126.44;6250279;28;20049;-76
2021/05/02 05:27:22;;;;;;;35.78;20.95;;;;;;;5.13;97.79;101129.91;6250311;28;20080;-76
2021/05/02 05:30:23;;;;;;;35.50;20.38;;;;;;;5.18;98.08;101132.41;6250464;28;20083;-77
2021/05/02 05:33:30;;;;;;;30.25;19.00;;;;;;;5.16;98.73;101131.59;6250195;28;20049;-77
2021/05/02 05:36:31;;;;;;;28.83;17.27;;;;;;;5.43;98.87;101133.50;6250156;28;20084;-77
2021/05/02 05:39:32;;;;;;;29.35;17.33;;;;;;;5.57;98.07;101131.41;6250181;28;20472;-77
2021/05/02 05:42:34;;;;;;;29.23;17.52;;;;;;;5.44;97.89;101148.25;6250430;28;20051;-76
2021/05/02 05:45:35;;;;;;;28.60;16.15;;;;;;;5.45;98.56;101141.28;6249870;28;20046;-76
2021/05/02 05:48:36;;;;;;;32.20;17.55;;;;;;;5.64;98.41;101139.06;6250274;28;20103;-76
2021/05/02 05:51:37;;;;;;;28.85;17.63;;;;;;;5.52;99.15;101138.47;6250135;28;20132;-76
2021/05/02 05:54:38;;;;;;;30.27;16.60;;;;;;;5.62;99.30;101138.25;6249702;28;20056;-77
2021/05/02 05:57:41;;;;;;;27.58;14.77;;;;;;;5.75;98.09;101130.06;6250054;28;20485;-76
2021/05/02 06:00:42;;;;;;;26.70;14.10;;;;;;;5.77;98.96;101130.03;6249930;28;20068;-76
2021/05/02 06:03:42;;;;;;;27.73;14.40;;;;;;;5.95;98.10;101126.94;6249869;28;20076;-77
2021/05/02 06:06:43;;;;;;;24.00;13.35;;;;;;;6.23;97.20;101132.22;6249189;28;20042;-77
2021/05/02 06:09:44;;;;;;;24.67;14.02;;;;;;;6.31;97.26;101139.81;6249919;28;20468;-77
2021/05/02 06:12:46;;;;;;;25.35;13.73;;;;;;;6.33;96.96;101131.03;6249783;28;20053;-77
2021/05/02 06:15:47;;;;;;;24.08;14.18;;;;;;;6.55;95.85;101146.06;6249354;28;20441;-76
2021/05/02 06:18:48;;;;;;;24.52;13.07;;;;;;;6.62;95.42;101147.56;6249902;28;20092;-76
2021/05/02 06:21:49;;;;;;;23.10;14.43;;;;;;;6.40;96.16;101144.75;6250460;28;20537;-76
2021/05/02 06:24:49;;;;;;;24.35;13.98;;;;;;;6.48;96.76;101149.75;6249004;28;20489;-77
2021/05/02 06:27:51;;;;;;;23.00;13.75;;;;;;;6.75;95.70;101158.50;6249664;28;20046;-77
2021/05/02 06:30:52;;;;;;;27.27;14.02;;;;;;;6.77;94.65;101154.09;6250341;28;20406;-76
2021/05/02 06:33:53;;;;;;;23.75;13.02;;;;;;;7.07;93.53;101152.25;6249699;28;20060;-76
2021/05/02 06:36:58;;;;;;;21.60;12.93;;;;;;;6.86;93.13;101164.28;6249349;28;20090;-77
2021/05/02 06:39:59;;;;;;;23.08;13.02;;;;;;;6.85;93.73;101154.69;6249595;28;20053;-77
2021/05/02 06:43:01;;;;;;;22.92;12.35;;;;;;;7.04;92.66;101152.34;6249365;28;20394;-76
2021/05/02 06:46:03;;;;;;;26.70;13.23;;;;;;;6.97;92.17;101161.31;6249473;28;20045;-77
2021/05/02 06:49:05;;;;;;;27.33;14.75;;;;;;;6.92;92.45;101155.38;6249037;28;20095;-77
2021/05/02 06:52:06;;;;;;;20.77;12.85;;;;;;;7.37;90.74;101158.25;6251514;28;20045;-76
2021/05/02 06:55:08;;;;;;;26.75;13.07;;;;;;;7.41;90.67;101156.41;6250175;28;20099;-76
2021/05/02 06:58:10;;;;;;;23.58;13.48;;;;;;;7.38;90.96;101159.97;6248873;28;20053;-76
2021/05/02 07:01:11;;;;;;;22.20;13.65;;;;;;;7.47;90.71;101159.66;6251894;28;20183;-76
2021/05/02 07:04:12;;;;;;;22.95;14.55;;;;;;;7.26;91.14;101163.81;6248933;28;20079;-77
2021/05/02 07:07:13;;;;;;;30.75;15.80;;;;;;;7.55;89.85;101159.41;6249029;28;20103;-76
2021/05/02 07:10:14;;;;;;;22.40;15.55;;;;;;;7.64;90.25;101161.69;6248583;28;20098;-77
2021/05/02 07:13:16;;;;;;;28.17;17.05;;;;;;;7.83;89.40;101160.13;6247905;28;20055;-77
2021/05/02 07:16:18;;;;;;;21.65;14.90;;;;;;;7.76;88.98;101160.41;6247735;28;20096;-77
2021/05/02 07:19:21;;;;;;;29.00;15.90;;;;;;;7.92;89.16;101173.81;6248761;28;20095;-76
2021/05/02 07:22:23;;;;;;;33.08;15.18;;;;;;;7.93;88.75;101176.38;6247716;28;20077;-77
2021/05/02 07:25:24;;;;;;;25.00;14.82;;;;;;;7.88;88.53;101168.69;6248105;28;20049;-77
2021/05/02 07:28:25;;;;;;;21.90;14.65;;;;;;;7.86;88.00;101173.13;6248177;28;20075;-76
2021/05/02 07:31:26;;;;;;;23.58;13.48;;;;;;;7.66;89.04;101177.31;6247756;28;20049;-77
2021/05/02 07:34:27;;;;;;;22.38;14.02;;;;;;;7.61;89.50;101174.88;6247778;28;20049;-77
2021/05/02 07:37:28;;;;;;;20.33;11.80;;;;;;;7.83;88.22;101175.84;6248120;28;20124;-77
2021/05/02 07:40:30;;;;;;;24.17;12.65;;;;;;;7.70;88.91;101184.16;6249121;28;20053;-76
2021/05/02 07:43:33;;;;;;;21.85;12.57;;;;;;;7.76;89.45;101184.78;6248446;28;20049;-77
2021/05/02 07:46:34;;;;;;;19.55;11.95;;;;;;;7.82;87.90;101179.38;6247799;28;20041;-77
2021/05/02 07:49:35;;;;;;;21.23;11.82;;;;;;;7.68;88.36;101179.00;6248208;28;20111;-77
2021/05/02 07:52:35;;;;;;;22.48;14.40;;;;;;;7.73;89.33;101184.94;6247658;28;20052;-77
2021/05/02 07:55:36;;;;;;;25.90;14.57;;;;;;;7.85;88.59;101178.41;6247180;28;20076;-76
2021/05/02 07:58:38;;;;;;;28.38;13.90;;;;;;;7.80;88.82;101181.16;6247449;28;20061;-77
2021/05/02 08:01:39;;;;;;;25.77;12.80;;;;;;;8.07;88.93;101186.34;6248644;28;20054;-77
2021/05/02 08:04:40;;;;;;;25.05;13.13;;;;;;;7.98;88.48;101182.28;6248113;28;20572;-76
2021/05/02 08:07:41;;;;;;;24.38;12.85;;;;;;;7.86;88.51;101185.34;6246331;28;20417;-77
2021/05/02 08:10:42;;;;;;;24.83;13.25;;;;;;;7.71;90.28;101184.09;6248245;28;20057;-77
2021/05/02 08:13:44;;;;;;;20.83;11.70;;;;;;;7.80;89.63;101185.56;6247855;28;20050;-77
2021/05/02 08:16:44;;;;;;;21.25;11.65;;;;;;;7.77;89.00;101189.16;6247962;28;20042;-78
2021/05/02 08:19:45;;;;;;;19.85;10.80;;;;;;;8.12;88.22;101184.41;6248461;28;20056;-77
2021/05/02 08:22:46;;;;;;;21.33;11.10;;;;;;;8.13;86.72;101189.63;6247693;28;20044;-76
2021/05/02 08:25:47;;;;;;;19.52;10.85;;;;;;;8.13;84.57;101187.00;6247158;28;20084;-77
2021/05/02 08:28:49;;;;;;;19.75;10.30;;;;;;;8.20;84.45;101187.59;6247942;28;20045;-77
2021/05/02 08:31:50;;;;;;;19.85;10.10;;;;;;;8.06;85.14;101193.34;6248176;28;20046;-77
2021/05/02 08:34:51;;;;;;;18.83;10.18;;;;;;;8.16;85.63;101190.41;6247305;28;20046;-77
2021/05/02 08:37:52;;;;;;;21.30;9.77;;;;;;;8.13;85.26;101199.22;6247935;28;20050;-77
2021/05/02 08:40:54;;;;;;;18.75;9.45;;;;;;;8.41;81.72;101195.63;6248171;28;20111;-76
2021/05/02 08:43:57;;;;;;;18.35;9.32;;;;;;;8.10;82.25;101199.34;6247206;28;20175;-77
2021/05/02 08:46:58;;;;;;;22.63;10.10;;;;;;;8.13;81.40;101207.09;6248220;28;20568;-77
2021/05/02 08:49:59;;;;;;;18.52;9.50;;;;;;;8.06;83.53;101206.44;6247207;28;20142;-78
2021/05/02 08:53:00;;;;;;;20.42;10.43;;;;;;;8.15;82.75;101205.25;6238271;28;20045;-77
2021/05/02 08:56:02;;;;;;;16.83;9.43;;;;;;;8.29;83.11;101212.59;6239843;28;20096;-78
2021/05/02 08:59:07;;;;;;;19.25;9.32;;;;;;;8.29;83.66;101202.13;6268790;22;20041;-75
2021/05/02 09:02:08;;;;;;;15.82;9.23;;;;;;;8.15;85.09;101207.88;6254519;28;20488;-74
2021/05/02 09:05:09;;;;;;;23.38;10.60;;;;;;;8.12;84.85;101208.81;6244241;28;20052;-75
2021/05/02 09:08:11;;;;;;;16.92;10.15;;;;;;;8.22;84.97;101204.13;6248677;28;20107;-74
2021/05/02 09:11:13;;;;;;;17.85;11.25;;;;;;;8.15;85.27;101215.72;6267928;28;20053;-75
2021/05/02 09:14:29;;;;;;;21.08;10.70;;;;;;;8.11;85.47;101225.44;6274022;28;20053;-75
2021/05/02 09:17:36;;;;;;;14.77;9.55;;;;;;;8.19;85.71;101214.72;6273717;28;20048;-75
2021/05/02 09:20:44;;;;;;;16.33;9.75;;;;;;;8.39;84.19;101209.63;6274701;28;20412;-75
2021/05/02 09:23:45;;;;;;;20.98;10.68;;;;;;;8.34;83.07;101221.16;6274338;28;20390;-75
2021/05/02 09:27:01;;;;;;;19.50;10.40;;;;;;;8.36;81.09;101215.00;6274715;28;20045;-75
2021/05/02 09:30:17;;;;;;;13.25;9.02;;;;;;;8.45;80.35;101218.16;6274733;28;20068;-73
2021/05/02 09:33:25;;;;;;;15.52;9.45;;;;;;;8.38;81.04;101221.00;6272379;28;20060;-74
2021/05/02 09:36:26;;;;;;;19.45;9.35;;;;;;;8.38;80.76;101217.53;6248581;28;20057;-76
2021/05/02 09:39:46;;;;;;;15.80;9.60;;;;;;;8.23;80.84;101223.31;6249397;28;20409;-76
2021/05/02 09:42:49;;;;;;;15.70;8.25;;;;;;;8.18;80.49;101227.88;6249655;28;20049;-75
2021/05/02 09:46:24;;;;;;;15.55;8.20;;;;;;;8.28;80.77;101221.38;6249712;28;20041;-75
2021/05/02 09:49:25;;;;;;;13.23;8.05;;;;;;;8.20;82.12;101220.78;6249350;28;20054;-75
2021/05/02 09:52:40;;;;;;;18.08;7.50;;;;;;;8.55;80.32;101230.03;6249074;28;20120;-74
2021/05/02 09:55:44;;;;;;;12.70;7.10;;;;;;;8.64;79.82;101235.78;6264249;28;20215;-76
2021/05/02 09:58:44;;;;;;;16.70;8.18;;;;;;;8.66;79.68;101232.22;6272827;28;20052;-75
2021/05/02 10:02:16;;;;;;;12.25;6.28;;;;;;;8.91;79.67;101232.16;6272794;28;20055;-74
2021/05/02 10:05:17;;;;;;;12.85;6.55;;;;;;;8.83;79.01;101245.56;6273533;28;20052;-76
2021/05/02 10:08:19;;;;;;;9.45;5.53;;;;;;;8.92;78.85;101246.97;6272243;28;20045;-75
2021/05/02 10:11:20;;;;;;;9.30;6.38;;;;;;;8.83;79.77;101238.53;6273599;28;20056;-74
2021/05/02 10:14:21;;;;;;;10.60;6.15;;;;;;;8.74;79.99;101243.28;6285684;28;20559;-76
2021/05/02 10:17:24;;;;;;;12.40;6.55;;;;;;;8.69;79.97;101240.84;6277760;28;20045;-75
2021/05/02 10:20:25;;;;;;;10.80;5.60;;;;;;;8.89;79.63;101242.69;6254442;28;20417;-75
2021/05/02 10:23:26;;;;;;;12.35;6.00;;;;;;;8.88;78.85;101233.13;6263855;28;20049;-75
2021/05/02 10:26:27;;;;;;;10.20;5.95;;;;;;;9.00;78.33;101234.44;6256111;28;20041;-76
2021/05/02 10:29:30;;;;;;;14.43;5.82;;;;;;;9.24;76.36;101251.81;6260145;28;20075;-75
2021/05/02 10:32:34;;;;;;;10.57;4.85;;;;;;;9.16;76.65;101238.13;6262412;28;20413;-75
2021/05/02 10:35:43;;;;;;;11.10;5.28;;;;;;;9.32;75.18;101244.50;6256021;28;20091;-74
2021/05/02 10:38:46;;;;;;;9.35;5.30;;;;;;;9.01;75.96;101242.22;6266193;28;20498;-76
2021/05/02 10:41:47;;;;;;;10.77;5.90;;;;;;;9.01;74.90;101250.09;6266605;28;20050;-75
2021/05/02 10:44:48;;;;;;;9.82;5.78;;;;;;;9.27;75.96;101238.59;6260185;28;20047;-75
2021/05/02 10:47:50;;;;;;;9.63;5.13;;;;;;;9.34;74.89;101242.66;6262957;28;20049;-76
2021/05/02 10:50:53;;;;;;;8.63;5.18;;;;;;;9.62;69.77;101237.13;6256870;28;20049;-75
2021/05/02 10:54:05;;;;;;;11.60;4.80;;;;;;;9.33;71.24;101251.44;6264604;28;20060;-75
2021/05/02 10:57:08;;;;;;;9.80;5.63;;;;;;;9.27;70.88;101254.31;6250894;28;20436;-76
2021/05/02 11:00:11;;;;;;;10.52;5.38;;;;;;;9.17;72.42;101252.09;6247726;28;20061;-75
2021/05/02 11:04:00;;;;;;;12.35;5.60;;;;;;;9.02;72.99;101249.16;6247292;28;20045;-75
2021/05/02 11:07:02;;;;;;;14.55;6.38;;;;;;;9.04;72.76;101259.63;6270263;28;20044;-76
2021/05/02 11:10:06;;;;;;;9.05;5.47;;;;;;;9.27;72.79;101264.81;6272098;28;20088;-75
2021/05/02 11:13:24;;;;;;;7.10;4.57;;;;;;;9.42;73.80;101271.22;6272470;28;20048;-78
2021/05/02 11:16:26;;;;;;;7.73;4.53;;;;;;;9.47;72.95;101271.88;6272870;28;20064;-76
2021/05/02 11:19:40;;;;;;;6.22;3.78;;;;;;;9.64;69.30;101272.06;6270182;28;20060;-76
2021/05/02 11:22:48;;;;;;;7.07;3.70;;;;;;;9.51;70.66;101285.72;6247295;28;20107;-75
2021/05/02 11:25:55;;;;;;;9.15;3.90;;;;;;;9.53;69.54;101283.88;6258747;28;20512;-75
2021/05/02 11:29:11;;;;;;;6.13;3.63;;;;;;;9.51;70.16;101283.09;6266440;28;20044;-75
2021/05/02 11:32:12;;;;;;;6.07;3.35;;;;;;;9.46;69.20;101278.03;6255034;28;20056;-73
2021/05/02 11:35:15;;;;;;;6.05;3.08;;;;;;;9.43;70.64;101287.81;6268225;28;20041;-74
2021/05/02 11:38:17;;;;;;;5.07;2.90;;;;;;;9.35;70.37;101293.34;6268935;28;20056;-73
2021/05/02 11:41:18;;;;;;;6.47;2.97;;;;;;;9.35;70.14;101286.31;6271703;28;20044;-75
2021/05/02 11:44:19;;;;;;;8.02;2.70;;;;;;;9.70;68.91;101291.94;6271823;28;20055;-75
2021/05/02 11:47:21;;;;;;;6.82;2.90;;;;;;;9.93;67.43;101290.13;6271549;28;20045;-74
2021/05/02 11:50:23;;;;;;;5.72;2.28;;;;;;;10.19;67.49;101282.00;6271867;28;20049;-76
2021/05/02 11:53:32;;;;;;;6.05;2.78;;;;;;;9.91;68.03;101291.06;6271688;28;20053;-76
2021/05/02 11:56:34;;;;;;;6.23;2.40;;;;;;;9.93;66.83;101280.47;6271770;28;20053;-78
2021/05/02 11:59:48;;;;;;;7.00;2.42;;;;;;;10.21;66.42;101276.66;6280803;28;20099;-78
2021/05/02 12:02:49;;;;;;;9.85;2.83;;;;;;;10.58;65.93;101281.19;6290791;28;20531;-75
2021/05/02 12:05:52;;;;;;;5.38;2.17;;;;;;;10.56;63.01;101280.41;6278030;28;20056;-77
2021/05/02 12:08:54;;;;;;;3.10;1.92;;;;;;;10.17;64.50;101278.56;6246601;28;20425;-74
2021/05/02 12:11:56;;;;;;;3.42;2.20;;;;;;;10.19;65.54;101286.41;6246501;28;20049;-74
2021/05/02 12:14:59;;;;;;;4.50;2.28;;;;;;;10.14;66.11;101289.22;6269996;28;20048;-75
2021/05/02 12:18:00;;;;;;;3.92;2.15;;;;;;;10.01;65.72;101282.78;6283567;28;20124;-74
2021/05/02 12:21:12;;;;;;;4.85;2.10;;;;;;;9.63;68.44;101293.13;6280121;28;20558;-74
2021/05/02 12:24:14;;;;;;;6.72;2.20;;;;;;;9.36;70.16;101302.94;6276758;28;20424;-75
2021/05/02 12:27:18;;;;;;;4.10;1.80;;;;;;;9.15;70.71;101302.84;6246419;28;20048;-75
2021/05/02 12:30:19;;;;;;;4.53;2.05;;;;;;;9.43;71.24;101301.75;6263310;28;20049;-74
2021/05/02 12:33:21;;;;;;;4.38;2.10;;;;;;;9.43;71.04;101301.75;6270900;28;20049;-75
2021/05/02 12:36:27;;;;;;;5.60;1.98;;;;;;;10.56;69.60;101294.41;6264441;28;20493;-74
2021/05/02 12:39:31;;;;;;;9.02;2.03;;;;;;;11.33;64.09;101282.97;6249172;28;20103;-74
2021/05/02 12:42:33;;;;;;;4.30;1.98;;;;;;;11.09;61.89;101285.84;6248931;28;20438;-74
2021/05/02 12:45:41;;;;;;;5.47;2.22;;;;;;;10.56;64.27;101290.94;6248515;28;20127;-75
2021/05/02 12:48:43;;;;;;;4.72;1.80;;;;;;;10.47;63.93;101278.19;6251425;28;20073;-75
2021/05/02 12:51:48;;;;;;;4.22;1.60;;;;;;;10.48;62.39;101285.16;6251037;28;20154;-75
2021/05/02 12:54:49;;;;;;;3.72;1.73;;;;;;;10.48;62.48;101283.38;6258472;28;20079;-75
2021/05/02 12:57:52;;;;;;;6.03;1.42;;;;;;;10.30;63.53;101287.66;6275335;28;20040;-74
2021/05/02 13:00:56;;;;;;;1.77;1.30;;;;;;;10.30;63.71;101286.81;6275435;28;20052;-75
2021/05/02 13:03:58;;;;;;;14.65;1.48;;;;;;;10.32;62.93;101295.50;6275154;28;20119;-74
2021/05/02 13:07:00;;;;;;;6.47;1.10;;;;;;;10.40;62.46;101296.00;6275205;28;20048;-74
2021/05/02 13:10:03;;;;;;;13.02;2.03;;;;;;;10.40;62.44;101302.13;6275335;28;20492;-75
2021/05/02 13:13:06;;;;;;;4.32;1.20;;;;;;;10.39;62.82;101299.53;6275256;28;20464;-75
2021/05/02 13:16:07;;;;;;;2.70;0.98;;;;;;;10.31;63.74;101299.91;6275340;28;20049;-75
2021/05/02 13:19:20;;;;;;;3.33;1.30;;;;;;;10.23;62.61;101314.25;6275196;28;20421;-76
2021/05/02 13:22:24;;;;;;;2.83;1.20;;;;;;;10.48;61.22;101312.28;6275224;28;20056;-75
2021/05/02 13:25:25;;;;;;;4.03;1.00;;;;;;;10.36;61.73;101304.94;6275176;28;20053;-76
2021/05/02 13:28:26;;;;;;;1.30;0.73;;;;;;;10.19;63.36;101325.81;6274809;28;20421;-76
2021/05/02 13:31:40;;;;;;;1.10;0.70;;;;;;;10.72;59.02;101309.47;6274992;28;20072;-75
2021/05/02 13:34:43;;;;;;;1.77;0.80;;;;;;;11.76;57.97;101302.78;6270428;28;20136;-75
2021/05/02 13:37:44;;;;;;;2.13;0.82;;;;;;;11.90;55.85;101315.34;6249719;28;20543;-76
2021/05/02 13:40:46;;;;;;;1.13;1.00;;;;;;;11.43;57.41;101313.19;6250179;28;20053;-76
2021/05/02 13:43:47;;;;;;;2.45;0.93;;;;;;;10.75;59.64;101333.00;6249761;28;20049;-76
2021/05/02 13:46:49;;;;;;;3.25;0.82;;;;;;;10.39;62.00;101329.28;6249798;28;20095;-76
2021/05/02 13:49:50;;;;;;;1.05;0.90;;;;;;;10.18;63.94;101327.56;6256786;28;20052;-76
2021/05/02 13:52:53;;;;;;;5.00;1.02;;;;;;;10.18;65.37;101337.22;6274200;28;20114;-75
2021/05/02 13:55:54;;;;;;;3.17;1.17;;;;;;;10.05;64.62;101339.50;6273937;28;20045;-76
2021/05/02 13:58:56;;;;;;;3.47;1.00;;;;;;;9.77;65.98;101352.91;6274084;28;20106;-76
2021/05/02 14:01:56;;;;;;;2.08;1.30;;;;;;;9.61;67.49;101345.63;6274063;28;20049;-75
2021/05/02 14:04:57;;;;;;;2.88;1.20;;;;;;;9.73;68.13;101346.06;6273899;28;20190;-76
2021/05/02 14:07:59;;;;;;;2.17;1.50;;;;;;;9.68;67.93;101348.03;6273655;28;20076;-74